createdAt,value
2022-10-15T00:01:36.003Z,2.92
2022-10-15T00:04:04.364Z,3.70
2022-10-15T00:06:33.137Z,3.08
2022-10-15T00:09:01.377Z,5.50
2022-10-15T00:11:30.674Z,3.67
2022-10-15T00:14:00.319Z,4.95
2022-10-15T00:16:29.697Z,3.00
2022-10-15T00:19:00.790Z,2.97
2022-10-15T00:21:29.116Z,2.85
2022-10-15T00:23:57.837Z,2.63
2022-10-15T00:26:28.413Z,3.88
2022-10-15T00:28:59.683Z,5.65
2022-10-15T00:31:29.459Z,4.05
2022-10-15T00:34:00.780Z,2.20
2022-10-15T00:36:30.787Z,3.85
2022-10-15T00:38:59.461Z,3.03
2022-10-15T00:41:29.596Z,4.50
2022-10-15T00:43:59.608Z,3.47
2022-10-15T00:46:31.917Z,2.78
2022-10-15T00:49:06.651Z,3.17
2022-10-15T00:51:40.951Z,3.10
2022-10-15T00:54:09.922Z,4.83
2022-10-15T00:56:40.905Z,3.55
2022-10-15T00:59:10.515Z,2.95
2022-10-15T01:01:39.105Z,3.95
2022-10-15T01:04:09.646Z,4.57
2022-10-15T01:06:38.303Z,4.55
2022-10-15T01:09:06.851Z,2.85
2022-10-15T01:11:41.957Z,1.95
2022-10-15T01:14:26.305Z,3.63
2022-10-15T01:17:01.063Z,2.80
2022-10-15T01:20:27.527Z,1.52
2022-10-15T01:23:15.394Z,2.00
2022-10-15T01:25:56.765Z,3.03
2022-10-15T01:28:39.074Z,3.47
2022-10-15T01:31:21.950Z,2.33
2022-10-15T01:34:02.377Z,2.78
2022-10-15T01:36:37.453Z,1.27
2022-10-15T01:41:43.413Z,1.65
2022-10-15T01:44:19.586Z,1.35
2022-10-15T01:47:15.589Z,1.00
2022-10-15T01:49:45.335Z,0.70
2022-10-15T01:52:17.923Z,2.00
2022-10-15T01:54:47.944Z,0.65
2022-10-15T01:57:17.587Z,2.13
2022-10-15T01:59:46.265Z,0.73
2022-10-15T02:02:15.913Z,0.77
2022-10-15T02:04:43.914Z,2.17
2022-10-15T02:07:19.587Z,1.48
2022-10-15T02:09:58.328Z,1.60
2022-10-15T02:12:37.910Z,1.60
2022-10-15T02:15:13.413Z,0.77
2022-10-15T02:17:47.051Z,1.23
2022-10-15T02:20:20.924Z,0.63
2022-10-15T02:22:56.020Z,1.67
2022-10-15T02:25:27.601Z,0.70
2022-10-15T02:27:58.006Z,0.65
2022-10-15T02:30:30.809Z,0.88
2022-10-15T02:33:01.777Z,1.20
2022-10-15T02:35:29.802Z,2.38
2022-10-15T02:38:03.547Z,2.22
2022-10-15T02:40:34.894Z,0.60
2022-10-15T02:43:06.654Z,0.90
2022-10-15T02:45:36.223Z,0.57
2022-10-15T02:48:06.786Z,1.48
2022-10-15T02:50:35.140Z,2.17
2022-10-15T02:53:03.129Z,0.50
2022-10-15T02:55:31.197Z,0.60
2022-10-15T02:57:59.445Z,1.17
2022-10-15T03:00:27.835Z,0.93
2022-10-15T03:02:56.245Z,1.10
2022-10-15T03:05:25.950Z,0.75
2022-10-15T03:07:54.883Z,2.35
2022-10-15T03:10:23.223Z,0.50
2022-10-15T03:12:51.340Z,2.55
2022-10-15T03:15:20.342Z,1.13
2022-10-15T03:17:48.521Z,0.90
2022-10-15T03:20:18.843Z,1.33
2022-10-15T03:22:48.315Z,1.67
2022-10-15T03:25:17.296Z,0.80
2022-10-15T03:27:45.740Z,3.08
2022-10-15T03:30:24.925Z,1.73
2022-10-15T03:32:53.226Z,6.40
2022-10-15T03:35:21.215Z,0.90
2022-10-15T03:37:50.436Z,2.63
2022-10-15T03:40:19.350Z,0.75
2022-10-15T03:42:51.521Z,0.77
2022-10-15T03:45:23.128Z,0.85
2022-10-15T03:47:59.323Z,1.42
2022-10-15T03:50:32.636Z,2.13
2022-10-15T03:53:05.998Z,1.50
2022-10-15T03:55:35.707Z,0.88
2022-10-15T03:58:03.824Z,1.58
2022-10-15T04:00:32.383Z,1.73
2022-10-15T04:03:03.446Z,1.25
2022-10-15T04:05:31.641Z,1.67
2022-10-15T04:08:07.292Z,2.97
2022-10-15T04:10:39.686Z,1.00
2022-10-15T04:13:08.834Z,2.65
2022-10-15T04:15:40.460Z,1.75
2022-10-15T04:18:12.116Z,1.15
2022-10-15T04:20:42.619Z,2.35
2022-10-15T04:23:20.801Z,2.35
2022-10-15T04:26:08.705Z,0.95
2022-10-15T04:28:37.522Z,2.50
2022-10-15T04:31:06.504Z,1.40
2022-10-15T04:33:35.379Z,0.75
2022-10-15T04:36:05.761Z,0.85
2022-10-15T04:38:53.933Z,1.63
2022-10-15T04:41:37.373Z,1.73
2022-10-15T04:44:09.391Z,2.25
2022-10-15T04:46:39.351Z,2.35
2022-10-15T04:49:25.354Z,1.40
2022-10-15T04:51:53.879Z,2.63
2022-10-15T04:54:43.661Z,3.35
2022-10-15T04:57:11.986Z,1.30
2022-10-15T04:59:40.173Z,2.03
2022-10-15T05:02:27.091Z,1.45
2022-10-15T05:05:04.226Z,1.10
2022-10-15T05:07:32.272Z,1.77
2022-10-15T05:10:01.929Z,1.20
2022-10-15T05:12:30.870Z,2.33
2022-10-15T05:14:58.906Z,0.98
2022-10-15T05:17:31.134Z,2.10
2022-10-15T05:20:00.720Z,2.13
2022-10-15T05:22:29.797Z,1.02
2022-10-15T05:25:01.834Z,2.78
2022-10-15T05:27:34.148Z,2.30
2022-10-15T05:30:05.568Z,3.33
2022-10-15T05:32:39.093Z,1.33
2022-10-15T05:35:10.056Z,3.50
2022-10-15T05:37:53.172Z,3.88
2022-10-15T05:40:22.531Z,2.75
2022-10-15T05:43:05.548Z,2.00
2022-10-15T05:45:33.633Z,2.13
2022-10-15T05:48:07.121Z,2.50
2022-10-15T05:50:36.098Z,2.15
2022-10-15T05:53:07.766Z,3.20
2022-10-15T05:55:44.531Z,2.85
2022-10-15T05:58:12.733Z,2.42
2022-10-15T06:00:40.904Z,1.17
2022-10-15T06:03:13.666Z,1.52
2022-10-15T06:05:42.024Z,2.40
2022-10-15T06:08:10.328Z,3.20
2022-10-15T06:10:38.834Z,3.70
2022-10-15T06:13:08.695Z,2.00
2022-10-15T06:15:39.766Z,1.50
2022-10-15T06:18:10.704Z,1.65
2022-10-15T06:20:40.371Z,2.15
2022-10-15T06:23:08.508Z,4.07
2022-10-15T06:25:37.247Z,1.00
2022-10-15T06:28:07.324Z,2.15
2022-10-15T06:30:43.999Z,1.60
2022-10-15T06:33:12.527Z,3.58
2022-10-15T06:35:41.335Z,1.95
2022-10-15T06:38:09.590Z,2.42
2022-10-15T06:40:38.684Z,4.78
2022-10-15T06:43:08.081Z,2.80
2022-10-15T06:45:38.981Z,2.53
2022-10-15T06:48:14.949Z,1.45
2022-10-15T06:50:43.251Z,1.08
2022-10-15T06:53:11.294Z,1.10
2022-10-15T06:55:39.716Z,1.40
2022-10-15T06:58:07.783Z,1.00
2022-10-15T07:03:08.064Z,1.38
2022-10-15T07:05:37.759Z,1.10
2022-10-15T07:08:06.481Z,0.70
2022-10-15T07:10:34.509Z,1.17
2022-10-15T07:13:03.183Z,0.90
2022-10-15T07:15:31.810Z,0.77
2022-10-15T07:18:01.624Z,0.77
2022-10-15T07:20:30.654Z,1.00
2022-10-15T07:23:03.022Z,1.00
2022-10-15T07:25:32.842Z,1.15
2022-10-15T07:28:01.111Z,1.13
2022-10-15T07:30:29.654Z,0.90
2022-10-15T07:32:58.164Z,2.50
2022-10-15T07:35:27.040Z,0.40
2022-10-15T07:37:55.443Z,0.95
2022-10-15T07:40:25.242Z,2.03
2022-10-15T07:42:57.703Z,1.08
2022-10-15T07:45:32.302Z,1.38
2022-10-15T07:48:00.364Z,1.30
2022-10-15T07:50:30.722Z,0.80
2022-10-15T07:53:03.034Z,1.58
2022-10-15T07:55:32.391Z,1.38
2022-10-15T07:58:00.453Z,1.50
2022-10-15T08:00:28.591Z,0.82
2022-10-15T08:02:56.724Z,1.48
2022-10-15T08:05:24.929Z,1.33
2022-10-15T08:07:52.913Z,1.67
2022-10-15T08:10:21.173Z,1.50
2022-10-15T08:12:50.665Z,1.55
2022-10-15T08:15:19.062Z,2.55
2022-10-15T08:17:47.543Z,5.43
2022-10-15T08:20:16.493Z,1.73
2022-10-15T08:22:44.782Z,1.90
2022-10-15T08:25:13.018Z,3.85
2022-10-15T08:27:41.145Z,1.92
2022-10-15T08:30:12.010Z,2.72
2022-10-15T08:32:40.023Z,3.92
2022-10-15T08:35:09.261Z,1.17
2022-10-15T08:37:37.664Z,5.18
2022-10-15T08:40:07.182Z,2.63
2022-10-15T08:42:39.798Z,2.78
2022-10-15T08:45:13.518Z,2.40
2022-10-15T08:47:48.752Z,4.20
2022-10-15T08:50:27.802Z,2.35
2022-10-15T08:53:00.474Z,1.98
2022-10-15T08:55:35.678Z,2.78
2022-10-15T08:58:14.020Z,2.47
2022-10-15T09:00:51.477Z,3.08
2022-10-15T09:03:33.197Z,2.17
2022-10-15T09:06:10.355Z,1.50
2022-10-15T09:08:45.079Z,3.17
2022-10-15T09:11:20.335Z,4.57
2022-10-15T09:13:50.103Z,2.67
2022-10-15T09:16:29.142Z,2.90
2022-10-15T09:19:00.109Z,3.17
2022-10-15T09:21:28.491Z,4.10
2022-10-15T09:23:59.461Z,2.88
2022-10-15T09:26:30.732Z,1.92
2022-10-15T09:29:05.357Z,4.00
2022-10-15T09:31:45.710Z,6.40
2022-10-15T09:34:24.175Z,1.83
2022-10-15T09:36:56.082Z,2.03
2022-10-15T09:39:40.071Z,1.48
2022-10-15T09:42:19.197Z,2.47
2022-10-15T09:44:48.751Z,2.78
2022-10-15T09:47:25.101Z,4.07
2022-10-15T09:49:58.659Z,2.67
2022-10-15T09:52:40.919Z,1.27
2022-10-15T09:55:28.279Z,6.00
2022-10-15T09:57:59.494Z,2.20
2022-10-15T10:00:54.406Z,3.60
2022-10-15T10:03:25.929Z,1.80
2022-10-15T10:06:01.235Z,1.55
2022-10-15T10:08:35.102Z,1.88
2022-10-15T10:11:05.449Z,2.80
2022-10-15T10:13:40.613Z,2.30
2022-10-15T10:16:11.987Z,4.03
2022-10-15T10:18:42.586Z,1.30
2022-10-15T10:21:23.193Z,2.13
2022-10-15T10:23:53.386Z,2.83
2022-10-15T10:26:22.056Z,4.40
2022-10-15T10:28:56.754Z,2.95
2022-10-15T10:31:31.955Z,1.63
2022-10-15T10:34:04.361Z,2.92
2022-10-15T10:36:36.488Z,3.17
2022-10-15T10:39:22.285Z,1.80
2022-10-15T10:41:53.320Z,2.53
2022-10-15T10:44:27.654Z,2.17
2022-10-15T10:47:13.005Z,1.50
2022-10-15T10:49:44.093Z,0.98
2022-10-15T10:52:24.885Z,2.80
2022-10-15T10:54:59.464Z,1.98
2022-10-15T10:57:40.455Z,4.18
2022-10-15T11:00:16.286Z,4.40
2022-10-15T11:02:48.832Z,1.38
2022-10-15T11:05:26.212Z,2.17
2022-10-15T11:08:07.570Z,3.10
2022-10-15T11:10:43.076Z,1.85
2022-10-15T11:13:42.623Z,3.97
2022-10-15T11:16:16.723Z,3.97
2022-10-15T11:18:55.602Z,3.25
2022-10-15T11:21:36.655Z,1.60
2022-10-15T11:24:16.403Z,3.40
2022-10-15T11:27:11.003Z,3.30
2022-10-15T11:29:54.469Z,1.92
2022-10-15T11:32:47.927Z,1.35
2022-10-15T11:35:55.169Z,1.02
2022-10-15T11:38:35.631Z,3.17
2022-10-15T11:41:17.386Z,1.23
2022-10-15T11:44:15.365Z,2.83
2022-10-15T11:46:49.333Z,3.92
2022-10-15T11:49:31.485Z,1.63
2022-10-15T11:52:17.709Z,3.15
2022-10-15T11:54:55.820Z,3.67
2022-10-15T11:57:28.467Z,2.75
2022-10-15T12:00:02.302Z,2.65
2022-10-15T12:02:40.798Z,0.90
2022-10-15T12:05:12.542Z,1.10
2022-10-15T12:07:42.798Z,1.98
2022-10-15T12:10:34.123Z,3.55
2022-10-15T12:13:10.125Z,4.10
2022-10-15T12:15:47.953Z,1.90
2022-10-15T12:18:23.337Z,2.03
2022-10-15T12:20:55.212Z,2.83
2022-10-15T12:23:26.233Z,1.98
2022-10-15T12:25:56.760Z,2.45
2022-10-15T12:28:34.228Z,1.70
2022-10-15T12:31:03.808Z,2.78
2022-10-15T12:33:38.202Z,2.67
2022-10-15T12:36:10.773Z,1.77
2022-10-15T12:38:42.159Z,1.10
2022-10-15T12:41:14.120Z,2.88
2022-10-15T12:43:45.635Z,1.60
2022-10-15T12:46:15.482Z,1.90
2022-10-15T12:48:48.233Z,1.00
2022-10-15T12:51:41.602Z,1.83
2022-10-15T12:54:43.278Z,1.85
2022-10-15T12:57:57.456Z,8.10
2022-10-15T13:00:40.130Z,1.70
2022-10-15T13:03:15.618Z,1.45
2022-10-15T13:05:47.840Z,4.90
2022-10-15T13:08:24.192Z,2.45
2022-10-15T13:10:55.901Z,2.43
2022-10-15T13:13:28.172Z,2.85
2022-10-15T13:16:02.615Z,4.20
2022-10-15T13:18:32.314Z,3.72
2022-10-15T13:23:32.141Z,5.07
2022-10-15T13:26:21.064Z,4.38
2022-10-15T13:28:52.951Z,3.72
2022-10-15T13:31:29.024Z,3.47
2022-10-15T13:34:01.598Z,4.75
2022-10-15T13:36:34.342Z,3.78
2022-10-15T13:39:06.557Z,2.35
2022-10-15T13:41:37.565Z,1.55
2022-10-15T13:44:07.231Z,3.53
2022-10-15T13:46:38.913Z,2.40
2022-10-15T13:49:13.147Z,2.58
2022-10-15T13:51:43.910Z,1.65
2022-10-15T13:54:17.492Z,1.95
2022-10-15T13:56:51.582Z,1.75
2022-10-15T13:59:21.860Z,2.47
2022-10-15T14:01:53.077Z,2.83
2022-10-15T14:04:23.557Z,1.08
2022-10-15T14:09:37.297Z,1.63
2022-10-15T14:12:08.545Z,1.55
2022-10-15T14:14:41.522Z,2.67
2022-10-15T14:17:13.302Z,1.85
2022-10-15T14:19:41.627Z,1.80
2022-10-15T14:22:19.321Z,1.52
2022-10-15T14:24:51.106Z,3.05
2022-10-15T14:27:22.686Z,2.53
2022-10-15T14:29:54.288Z,1.42
2022-10-15T14:32:25.644Z,2.25
2022-10-15T14:34:55.534Z,2.78
2022-10-15T14:37:41.128Z,2.97
2022-10-15T14:40:16.662Z,2.03
2022-10-15T14:42:47.001Z,6.97
2022-10-15T14:45:22.576Z,3.40
2022-10-15T14:47:53.748Z,1.02
2022-10-15T14:50:24.574Z,2.65
2022-10-15T14:52:55.186Z,3.90
2022-10-15T14:55:33.631Z,2.42
2022-10-15T14:58:08.422Z,2.35
2022-10-15T15:03:12.329Z,2.40
2022-10-15T15:05:52.750Z,2.17
2022-10-15T15:08:21.140Z,2.90
2022-10-15T15:10:51.785Z,1.60
2022-10-15T15:13:23.777Z,4.15
2022-10-15T15:15:53.903Z,2.53
2022-10-15T15:18:22.134Z,2.53
2022-10-15T15:20:51.599Z,3.25
2022-10-15T15:23:22.101Z,4.45
2022-10-15T15:25:50.657Z,5.45
2022-10-15T15:28:20.978Z,3.22
2022-10-15T15:30:57.126Z,4.20
2022-10-15T15:33:25.571Z,3.72
2022-10-15T15:35:55.266Z,4.18
2022-10-15T15:38:30.608Z,4.60
2022-10-15T15:41:04.351Z,1.60
2022-10-15T15:43:32.535Z,4.07
2022-10-15T15:46:01.938Z,2.83
2022-10-15T15:48:30.475Z,3.20
2022-10-15T15:51:02.874Z,3.58
2022-10-15T15:53:31.066Z,3.53
2022-10-15T15:55:59.195Z,3.88
2022-10-15T15:58:27.212Z,5.43
2022-10-15T16:00:55.291Z,2.30
2022-10-15T16:03:24.678Z,3.92
2022-10-15T16:05:52.839Z,7.43
2022-10-15T16:08:20.946Z,2.50
2022-10-15T16:10:49.141Z,3.83
2022-10-15T16:13:17.349Z,5.25
2022-10-15T16:15:45.419Z,5.68
2022-10-15T16:18:13.409Z,2.58
2022-10-15T16:20:47.724Z,6.38
2022-10-15T16:23:16.109Z,3.55
2022-10-15T16:25:44.391Z,1.38
2022-10-15T16:28:12.518Z,4.35
2022-10-15T16:30:40.653Z,2.85
2022-10-15T16:35:43.087Z,6.38
2022-10-15T16:38:11.186Z,10.07
2022-10-15T16:40:39.957Z,9.25
2022-10-15T16:43:08.017Z,7.38
2022-10-15T16:45:36.060Z,7.75
2022-10-15T16:48:04.255Z,7.20
2022-10-15T16:50:32.607Z,7.60
2022-10-15T16:53:02.132Z,5.43
2022-10-15T16:55:32.319Z,7.82
2022-10-15T16:58:00.433Z,5.35
2022-10-15T17:00:28.717Z,2.47
2022-10-15T17:02:56.791Z,4.60
2022-10-15T17:05:24.748Z,3.80
2022-10-15T17:07:53.286Z,4.18
2022-10-15T17:10:25.685Z,5.60
2022-10-15T17:12:53.966Z,4.30
2022-10-15T17:15:22.077Z,3.47
2022-10-15T17:17:50.092Z,2.72
2022-10-15T17:20:18.262Z,3.28
2022-10-15T17:22:46.345Z,3.35
2022-10-15T17:25:14.625Z,3.45
2022-10-15T17:27:44.829Z,3.13
2022-10-15T17:30:13.310Z,3.85
2022-10-15T17:32:41.436Z,4.20
2022-10-15T17:35:10.256Z,5.05
2022-10-15T17:37:39.846Z,6.28
2022-10-15T17:40:09.396Z,6.65
2022-10-15T17:42:42.453Z,5.60
2022-10-15T17:45:12.857Z,6.65
2022-10-15T17:47:40.911Z,5.75
2022-10-15T17:50:13.283Z,5.80
2022-10-15T17:52:42.682Z,3.53
2022-10-15T17:55:11.038Z,3.25
2022-10-15T17:57:39.136Z,5.65
2022-10-15T18:00:09.047Z,6.00
2022-10-15T18:02:41.803Z,6.53
2022-10-15T18:05:10.383Z,6.47
2022-10-15T18:07:38.580Z,5.55
2022-10-15T18:10:09.239Z,7.32
2022-10-15T18:12:37.420Z,6.05
2022-10-15T18:15:06.930Z,11.90
2022-10-15T18:17:35.088Z,8.75
2022-10-15T18:20:04.770Z,7.50
2022-10-15T18:22:33.228Z,5.50
2022-10-15T18:25:01.528Z,5.32
2022-10-15T18:27:29.650Z,7.82
2022-10-15T18:29:57.634Z,15.23
2022-10-15T18:32:25.839Z,9.60
2022-10-15T18:34:54.060Z,21.58
2022-10-15T18:37:24.585Z,19.67
2022-10-15T18:39:52.754Z,16.35
2022-10-15T18:42:20.679Z,14.35
2022-10-15T18:44:48.734Z,8.88
2022-10-15T18:47:16.918Z,6.47
2022-10-15T18:49:45.979Z,13.32
2022-10-15T18:52:21.736Z,8.68
2022-10-15T18:54:57.638Z,11.10
2022-10-15T18:57:25.793Z,10.13
2022-10-15T18:59:53.999Z,9.07
2022-10-15T19:02:22.087Z,5.50
2022-10-15T19:04:50.101Z,5.57
2022-10-15T19:07:19.692Z,4.25
2022-10-15T19:09:48.587Z,2.85
2022-10-15T19:12:21.464Z,3.70
2022-10-15T19:14:49.793Z,2.80
2022-10-15T19:17:17.924Z,7.03
2022-10-15T19:19:50.021Z,5.88
2022-10-15T19:22:18.889Z,4.78
2022-10-15T19:24:46.936Z,3.03
2022-10-15T19:27:15.281Z,2.65
2022-10-15T19:29:44.937Z,3.47
2022-10-15T19:32:12.948Z,2.70
2022-10-15T19:34:41.138Z,4.28
2022-10-15T19:37:09.216Z,3.75
2022-10-15T19:39:48.768Z,3.15
2022-10-15T19:42:17.184Z,6.88
2022-10-15T19:44:46.803Z,2.90
2022-10-15T19:47:20.340Z,3.72
2022-10-15T19:49:50.495Z,3.92
2022-10-15T19:52:18.682Z,4.75
2022-10-15T19:54:52.359Z,3.28
2022-10-15T19:57:20.418Z,3.25
2022-10-15T19:59:49.996Z,4.75
2022-10-15T20:02:18.050Z,3.67
2022-10-15T20:04:46.022Z,3.90
2022-10-15T20:07:14.121Z,3.90
2022-10-15T20:09:42.332Z,5.03
2022-10-15T20:12:10.656Z,7.45
2022-10-15T20:14:38.858Z,5.05
2022-10-15T20:17:08.332Z,5.53
2022-10-15T20:19:36.360Z,6.70
2022-10-15T20:22:04.432Z,5.65
2022-10-15T20:24:32.570Z,8.50
2022-10-15T20:27:01.547Z,5.43
2022-10-15T20:29:30.531Z,7.57
2022-10-15T20:32:05.904Z,5.25
2022-10-15T20:34:46.317Z,7.35
2022-10-15T20:37:16.195Z,5.78
2022-10-15T20:39:44.611Z,6.95
2022-10-15T20:42:12.678Z,9.48
2022-10-15T20:44:40.782Z,8.52
2022-10-15T20:47:11.164Z,8.70
2022-10-15T20:49:45.106Z,4.55
2022-10-15T20:52:15.710Z,6.10
2022-10-15T20:54:43.781Z,4.45
2022-10-15T20:57:12.686Z,4.07
2022-10-15T20:59:40.796Z,4.85
2022-10-15T21:02:08.778Z,5.07
2022-10-15T21:04:36.805Z,4.60
2022-10-15T21:07:04.999Z,7.68
2022-10-15T21:09:34.536Z,4.18
2022-10-15T21:12:02.654Z,7.68
2022-10-15T21:14:31.014Z,4.97
2022-10-15T21:16:59.032Z,8.98
2022-10-15T21:19:28.184Z,7.50
2022-10-15T21:21:56.718Z,4.63
2022-10-15T21:24:27.947Z,4.18
2022-10-15T21:26:57.914Z,6.22
2022-10-15T21:29:27.754Z,4.90
2022-10-15T21:31:57.660Z,5.43
2022-10-15T21:34:27.718Z,8.02
2022-10-15T21:36:56.298Z,3.00
2022-10-15T21:39:24.509Z,3.75
2022-10-15T21:41:52.517Z,8.10
2022-10-15T21:44:21.939Z,7.05
2022-10-15T21:46:50.055Z,13.65
2022-10-15T21:49:18.086Z,13.00
2022-10-15T21:51:46.600Z,7.20
2022-10-15T21:54:14.784Z,4.55
2022-10-15T21:56:43.117Z,5.65
2022-10-15T21:59:11.969Z,8.75
2022-10-15T22:01:45.216Z,4.20
2022-10-15T22:04:13.579Z,7.88
2022-10-15T22:06:41.829Z,4.55
2022-10-15T22:09:11.547Z,5.55
2022-10-15T22:11:42.231Z,5.63
2022-10-15T22:14:13.570Z,5.28
2022-10-15T22:16:43.904Z,5.07
2022-10-15T22:19:14.957Z,6.93
2022-10-15T22:21:43.502Z,5.07
2022-10-15T22:24:14.973Z,6.07
2022-10-15T22:26:45.363Z,4.82
2022-10-15T22:29:18.598Z,6.97
2022-10-15T22:31:48.019Z,6.78
2022-10-15T22:34:16.191Z,7.55
2022-10-15T22:36:44.892Z,4.22
2022-10-15T22:39:15.443Z,4.13
2022-10-15T22:41:46.084Z,5.70
2022-10-15T22:44:16.586Z,6.38
2022-10-15T22:46:49.053Z,7.50
2022-10-15T22:49:19.608Z,4.85
2022-10-15T22:51:47.884Z,9.35
2022-10-15T22:54:16.523Z,7.53
2022-10-15T22:56:45.654Z,7.32
2022-10-15T22:59:14.039Z,7.35
2022-10-15T23:01:42.462Z,7.60
2022-10-15T23:04:14.000Z,4.97
2022-10-15T23:06:43.829Z,9.25
2022-10-15T23:09:19.351Z,9.05
2022-10-15T23:11:47.434Z,6.63
2022-10-15T23:14:17.307Z,7.85
2022-10-15T23:16:46.835Z,6.47
2022-10-15T23:19:17.812Z,4.55
2022-10-15T23:21:48.917Z,4.82
2022-10-15T23:24:18.005Z,5.68
2022-10-15T23:26:46.174Z,4.78
2022-10-15T23:29:16.988Z,5.13
2022-10-15T23:31:45.649Z,5.40
2022-10-15T23:34:16.090Z,4.22
2022-10-15T23:36:44.215Z,5.57
2022-10-15T23:39:16.399Z,5.63
2022-10-15T23:41:44.892Z,5.85
2022-10-15T23:44:13.341Z,5.65
2022-10-15T23:46:42.027Z,3.97
2022-10-15T23:49:10.100Z,5.45
2022-10-15T23:51:39.206Z,5.00
2022-10-15T23:54:16.236Z,6.22
2022-10-15T23:56:44.717Z,5.25
2022-10-15T23:59:13.257Z,5.85
